sensor_id;sensor_type;location;lat;lon;timestamp;temperature;humidity
3846;DHT22;1938;50.812;7.738;2023-01-24T00:01:42;1.20;1.00
3846;DHT22;1938;50.812;7.738;2023-01-24T00:04:07;1.30;1.00
3846;DHT22;1938;50.812;7.738;2023-01-24T00:06:33;1.20;1.00
3846;DHT22;1938;50.812;7.738;2023-01-24T00:08:58;1.20;1.00
3846;DHT22;1938;50.812;7.738;2023-01-24T00:11:24;1.20;1.00
3846;DHT22;1938;50.812;7.738;2023-01-24T00:13:49;1.10;99.90
3846;DHT22;1938;50.812;7.738;2023-01-24T00:16:18;1.30;99.90
3846;DHT22;1938;50.812;7.738;2023-01-24T00:18:44;1.30;1.00
3846;DHT22;1938;50.812;7.738;2023-01-24T00:21:13;1.20;92.50
3846;DHT22;1938;50.812;7.738;2023-01-24T00:23:41;1.20;94.00
3846;DHT22;1938;50.812;7.738;2023-01-24T00:26:08;1.10;99.90
3846;DHT22;1938;50.812;7.738;2023-01-24T00:28:34;1.10;43.90
3846;DHT22;1938;50.812;7.738;2023-01-24T00:31:00;1.10;25.40
3846;DHT22;1938;50.812;7.738;2023-01-24T00:33:25;1.10;89.70
3846;DHT22;1938;50.812;7.738;2023-01-24T00:35:51;1.00;95.80
3846;DHT22;1938;50.812;7.738;2023-01-24T00:38:17;1.10;10.00
3846;DHT22;1938;50.812;7.738;2023-01-24T00:40:44;1.20;19.90
3846;DHT22;1938;50.812;7.738;2023-01-24T00:43:10;1.20;1.00
3846;DHT22;1938;50.812;7.738;2023-01-24T00:45:37;1.20;1.00
3846;DHT22;1938;50.812;7.738;2023-01-24T00:48:04;1.10;19.70
3846;DHT22;1938;50.812;7.738;2023-01-24T00:50:29;1.10;99.90
3846;DHT22;1938;50.812;7.738;2023-01-24T00:52:55;1.20;1.00
3846;DHT22;1938;50.812;7.738;2023-01-24T00:55:21;1.10;99.90
3846;DHT22;1938;50.812;7.738;2023-01-24T00:57:46;1.10;1.00
3846;DHT22;1938;50.812;7.738;2023-01-24T01:00:12;1.10;99.90
3846;DHT22;1938;50.812;7.738;2023-01-24T01:02:38;1.10;99.90
3846;DHT22;1938;50.812;7.738;2023-01-24T01:05:04;1.40;99.90
3846;DHT22;1938;50.812;7.738;2023-01-24T01:07:30;1.20;45.00
3846;DHT22;1938;50.812;7.738;2023-01-24T01:09:57;1.10;99.90
3846;DHT22;1938;50.812;7.738;2023-01-24T01:12:22;1.10;1.00
3846;DHT22;1938;50.812;7.738;2023-01-24T01:14:48;1.10;99.90
3846;DHT22;1938;50.812;7.738;2023-01-24T01:17:14;1.00;99.90
3846;DHT22;1938;50.812;7.738;2023-01-24T01:19:41;1.00;99.90
3846;DHT22;1938;50.812;7.738;2023-01-24T01:22:06;1.00;99.90
3846;DHT22;1938;50.812;7.738;2023-01-24T01:24:32;1.10;1.00
3846;DHT22;1938;50.812;7.738;2023-01-24T01:26:58;1.00;1.00
3846;DHT22;1938;50.812;7.738;2023-01-24T01:29:25;1.20;32.30
3846;DHT22;1938;50.812;7.738;2023-01-24T01:31:51;1.20;99.90
3846;DHT22;1938;50.812;7.738;2023-01-24T01:34:17;1.20;84.40
3846;DHT22;1938;50.812;7.738;2023-01-24T01:36:42;1.10;99.90
3846;DHT22;1938;50.812;7.738;2023-01-24T01:39:08;1.00;99.90
3846;DHT22;1938;50.812;7.738;2023-01-24T01:41:34;1.00;1.00
3846;DHT22;1938;50.812;7.738;2023-01-24T01:44:23;1.00;1.00
3846;DHT22;1938;50.812;7.738;2023-01-24T01:47:34;1.00;1.00
3846;DHT22;1938;50.812;7.738;2023-01-24T01:50:21;1.00;1.00
3846;DHT22;1938;50.812;7.738;2023-01-24T01:52:49;1.00;1.00
3846;DHT22;1938;50.812;7.738;2023-01-24T01:55:23;1.20;99.90
3846;DHT22;1938;50.812;7.738;2023-01-24T01:57:51;1.10;99.90
3846;DHT22;1938;50.812;7.738;2023-01-24T02:00:20;1.10;99.90
3846;DHT22;1938;50.812;7.738;2023-01-24T02:02:50;1.10;99.90
3846;DHT22;1938;50.812;7.738;2023-01-24T02:05:20;1.00;99.90
3846;DHT22;1938;50.812;7.738;2023-01-24T02:07:59;1.00;1.00
3846;DHT22;1938;50.812;7.738;2023-01-24T02:10:27;1.00;99.90
3846;DHT22;1938;50.812;7.738;2023-01-24T02:13:12;0.90;99.90
3846;DHT22;1938;50.812;7.738;2023-01-24T02:15:39;0.80;99.90
3846;DHT22;1938;50.812;7.738;2023-01-24T02:18:23;0.80;1.00
3846;DHT22;1938;50.812;7.738;2023-01-24T02:20:49;0.80;99.90
3846;DHT22;1938;50.812;7.738;2023-01-24T02:26:09;0.90;99.90
3846;DHT22;1938;50.812;7.738;2023-01-24T02:28:36;0.90;1.00
3846;DHT22;1938;50.812;7.738;2023-01-24T02:31:03;0.90;1.00
3846;DHT22;1938;50.812;7.738;2023-01-24T02:33:31;0.90;1.00
3846;DHT22;1938;50.812;7.738;2023-01-24T02:36:26;0.90;99.90
3846;DHT22;1938;50.812;7.738;2023-01-24T02:39:02;0.90;1.00
3846;DHT22;1938;50.812;7.738;2023-01-24T02:41:43;0.80;1.00
3846;DHT22;1938;50.812;7.738;2023-01-24T02:44:13;0.70;1.00
3846;DHT22;1938;50.812;7.738;2023-01-24T02:46:43;0.80;99.90
3846;DHT22;1938;50.812;7.738;2023-01-24T02:49:09;0.80;1.00
3846;DHT22;1938;50.812;7.738;2023-01-24T02:51:35;0.80;99.90
3846;DHT22;1938;50.812;7.738;2023-01-24T02:54:21;0.80;99.90
3846;DHT22;1938;50.812;7.738;2023-01-24T02:56:46;0.80;99.90
3846;DHT22;1938;50.812;7.738;2023-01-24T02:59:31;0.80;48.10
3846;DHT22;1938;50.812;7.738;2023-01-24T03:01:56;0.90;28.90
3846;DHT22;1938;50.812;7.738;2023-01-24T03:04:22;0.80;14.40
3846;DHT22;1938;50.812;7.738;2023-01-24T03:06:47;0.80;99.90
3846;DHT22;1938;50.812;7.738;2023-01-24T03:09:14;0.80;99.90
3846;DHT22;1938;50.812;7.738;2023-01-24T03:12:00;0.70;99.90
3846;DHT22;1938;50.812;7.738;2023-01-24T03:14:47;0.80;99.90
3846;DHT22;1938;50.812;7.738;2023-01-24T03:17:31;0.80;1.00
3846;DHT22;1938;50.812;7.738;2023-01-24T03:20:16;1.00;93.40
3846;DHT22;1938;50.812;7.738;2023-01-24T03:23:01;0.90;49.80
3846;DHT22;1938;50.812;7.738;2023-01-24T03:25:45;0.80;1.00
3846;DHT22;1938;50.812;7.738;2023-01-24T03:28:29;0.80;1.00
3846;DHT22;1938;50.812;7.738;2023-01-24T03:31:13;0.70;99.90
3846;DHT22;1938;50.812;7.738;2023-01-24T03:33:57;0.60;99.90
3846;DHT22;1938;50.812;7.738;2023-01-24T03:36:41;0.70;99.90
3846;DHT22;1938;50.812;7.738;2023-01-24T03:39:08;0.70;99.90
3846;DHT22;1938;50.812;7.738;2023-01-24T03:41:51;0.60;99.90
3846;DHT22;1938;50.812;7.738;2023-01-24T03:44:17;0.80;1.00
3846;DHT22;1938;50.812;7.738;2023-01-24T03:46:43;0.90;99.90
3846;DHT22;1938;50.812;7.738;2023-01-24T03:49:19;0.90;1.00
3846;DHT22;1938;50.812;7.738;2023-01-24T03:51:45;0.70;65.80
3846;DHT22;1938;50.812;7.738;2023-01-24T03:54:30;0.60;99.90
3846;DHT22;1938;50.812;7.738;2023-01-24T03:56:56;0.70;99.90
3846;DHT22;1938;50.812;7.738;2023-01-24T03:59:21;0.70;99.90
3846;DHT22;1938;50.812;7.738;2023-01-24T04:01:47;0.70;1.20
3846;DHT22;1938;50.812;7.738;2023-01-24T04:04:12;0.60;72.10
3846;DHT22;1938;50.812;7.738;2023-01-24T04:06:38;0.60;99.90
3846;DHT22;1938;50.812;7.738;2023-01-24T04:09:03;0.60;99.90
3846;DHT22;1938;50.812;7.738;2023-01-24T04:11:29;0.50;1.00
3846;DHT22;1938;50.812;7.738;2023-01-24T04:13:54;0.50;99.90
3846;DHT22;1938;50.812;7.738;2023-01-24T04:16:20;0.50;99.90
3846;DHT22;1938;50.812;7.738;2023-01-24T04:18:45;0.50;99.90
3846;DHT22;1938;50.812;7.738;2023-01-24T04:21:11;0.40;1.00
3846;DHT22;1938;50.812;7.738;2023-01-24T04:23:38;0.40;99.90
3846;DHT22;1938;50.812;7.738;2023-01-24T04:26:03;0.50;99.90
3846;DHT22;1938;50.812;7.738;2023-01-24T04:28:30;0.40;1.00
3846;DHT22;1938;50.812;7.738;2023-01-24T04:31:01;0.40;20.40
3846;DHT22;1938;50.812;7.738;2023-01-24T04:33:27;0.50;99.90
3846;DHT22;1938;50.812;7.738;2023-01-24T04:35:57;0.50;99.90
3846;DHT22;1938;50.812;7.738;2023-01-24T04:38:24;0.50;99.90
3846;DHT22;1938;50.812;7.738;2023-01-24T04:40:58;0.50;99.90
3846;DHT22;1938;50.812;7.738;2023-01-24T04:43:23;0.60;99.90
3846;DHT22;1938;50.812;7.738;2023-01-24T04:45:49;0.60;39.50
3846;DHT22;1938;50.812;7.738;2023-01-24T04:48:16;0.50;1.10
3846;DHT22;1938;50.812;7.738;2023-01-24T04:50:41;0.50;29.50
3846;DHT22;1938;50.812;7.738;2023-01-24T04:53:07;0.50;31.70
3846;DHT22;1938;50.812;7.738;2023-01-24T04:55:33;0.50;99.90
3846;DHT22;1938;50.812;7.738;2023-01-24T04:58:00;0.50;99.90
3846;DHT22;1938;50.812;7.738;2023-01-24T05:00:26;0.40;99.90
3846;DHT22;1938;50.812;7.738;2023-01-24T05:02:51;0.40;1.00
3846;DHT22;1938;50.812;7.738;2023-01-24T05:05:17;0.50;99.90
3846;DHT22;1938;50.812;7.738;2023-01-24T05:07:43;0.50;1.00
3846;DHT22;1938;50.812;7.738;2023-01-24T05:10:08;0.40;99.90
3846;DHT22;1938;50.812;7.738;2023-01-24T05:12:34;0.40;99.90
3846;DHT22;1938;50.812;7.738;2023-01-24T05:15:00;0.50;99.90
3846;DHT22;1938;50.812;7.738;2023-01-24T05:17:25;0.40;1.00
3846;DHT22;1938;50.812;7.738;2023-01-24T05:19:51;0.40;99.90
3846;DHT22;1938;50.812;7.738;2023-01-24T05:22:16;0.40;99.90
3846;DHT22;1938;50.812;7.738;2023-01-24T05:24:42;0.40;99.90
3846;DHT22;1938;50.812;7.738;2023-01-24T05:27:07;0.40;99.90
3846;DHT22;1938;50.812;7.738;2023-01-24T05:29:33;0.50;99.90
3846;DHT22;1938;50.812;7.738;2023-01-24T05:31:59;0.60;99.90
3846;DHT22;1938;50.812;7.738;2023-01-24T05:34:24;0.50;1.00
3846;DHT22;1938;50.812;7.738;2023-01-24T05:36:50;0.50;30.00
3846;DHT22;1938;50.812;7.738;2023-01-24T05:39:16;0.50;99.90
3846;DHT22;1938;50.812;7.738;2023-01-24T05:41:42;0.60;1.00
3846;DHT22;1938;50.812;7.738;2023-01-24T05:44:08;0.60;1.00
3846;DHT22;1938;50.812;7.738;2023-01-24T05:46:34;0.80;1.00
3846;DHT22;1938;50.812;7.738;2023-01-24T05:49:00;0.80;1.00
3846;DHT22;1938;50.812;7.738;2023-01-24T05:51:25;0.80;99.90
3846;DHT22;1938;50.812;7.738;2023-01-24T05:53:51;0.80;99.90
3846;DHT22;1938;50.812;7.738;2023-01-24T05:56:18;1.00;1.00
3846;DHT22;1938;50.812;7.738;2023-01-24T05:58:45;0.90;1.00
3846;DHT22;1938;50.812;7.738;2023-01-24T06:01:17;0.90;99.90
3846;DHT22;1938;50.812;7.738;2023-01-24T06:03:46;0.80;1.00
3846;DHT22;1938;50.812;7.738;2023-01-24T06:06:14;0.80;1.00
3846;DHT22;1938;50.812;7.738;2023-01-24T06:08:40;0.90;99.90
3846;DHT22;1938;50.812;7.738;2023-01-24T06:11:11;0.90;99.90
3846;DHT22;1938;50.812;7.738;2023-01-24T06:13:38;0.80;1.00
3846;DHT22;1938;50.812;7.738;2023-01-24T06:16:12;0.70;94.30
3846;DHT22;1938;50.812;7.738;2023-01-24T06:18:38;0.80;1.00
3846;DHT22;1938;50.812;7.738;2023-01-24T06:23:42;0.70;1.00
3846;DHT22;1938;50.812;7.738;2023-01-24T06:26:09;0.60;99.90
3846;DHT22;1938;50.812;7.738;2023-01-24T06:28:36;0.60;99.90
3846;DHT22;1938;50.812;7.738;2023-01-24T06:34:07;0.60;1.00
3846;DHT22;1938;50.812;7.738;2023-01-24T06:36:53;0.60;5.50
3846;DHT22;1938;50.812;7.738;2023-01-24T06:39:21;0.70;99.90
3846;DHT22;1938;50.812;7.738;2023-01-24T06:41:48;0.60;1.00
3846;DHT22;1938;50.812;7.738;2023-01-24T06:44:14;0.60;1.00
3846;DHT22;1938;50.812;7.738;2023-01-24T06:46:39;0.60;99.90
3846;DHT22;1938;50.812;7.738;2023-01-24T06:49:05;0.60;32.20
3846;DHT22;1938;50.812;7.738;2023-01-24T06:51:31;0.60;84.20
3846;DHT22;1938;50.812;7.738;2023-01-24T06:53:56;0.60;43.10
3846;DHT22;1938;50.812;7.738;2023-01-24T06:56:23;0.60;99.90
3846;DHT22;1938;50.812;7.738;2023-01-24T06:58:48;0.60;99.90
3846;DHT22;1938;50.812;7.738;2023-01-24T07:01:14;0.60;35.60
3846;DHT22;1938;50.812;7.738;2023-01-24T07:03:39;0.60;99.90
3846;DHT22;1938;50.812;7.738;2023-01-24T07:06:05;0.70;99.00
3846;DHT22;1938;50.812;7.738;2023-01-24T07:08:31;0.70;91.80
3846;DHT22;1938;50.812;7.738;2023-01-24T07:10:57;0.70;1.00
3846;DHT22;1938;50.812;7.738;2023-01-24T07:13:23;0.80;18.20
3846;DHT22;1938;50.812;7.738;2023-01-24T07:15:49;0.80;1.00
3846;DHT22;1938;50.812;7.738;2023-01-24T07:18:16;0.80;1.00
3846;DHT22;1938;50.812;7.738;2023-01-24T07:20:43;0.80;99.90
3846;DHT22;1938;50.812;7.738;2023-01-24T07:23:24;0.90;1.00
3846;DHT22;1938;50.812;7.738;2023-01-24T07:25:53;0.90;1.00
3846;DHT22;1938;50.812;7.738;2023-01-24T07:28:19;1.00;1.00
3846;DHT22;1938;50.812;7.738;2023-01-24T07:30:46;1.00;99.90
3846;DHT22;1938;50.812;7.738;2023-01-24T07:33:13;1.00;99.90
3846;DHT22;1938;50.812;7.738;2023-01-24T07:35:40;1.00;99.90
3846;DHT22;1938;50.812;7.738;2023-01-24T07:38:06;1.00;33.90
3846;DHT22;1938;50.812;7.738;2023-01-24T07:40:32;1.00;21.50
3846;DHT22;1938;50.812;7.738;2023-01-24T07:43:01;1.00;99.90
3846;DHT22;1938;50.812;7.738;2023-01-24T07:45:27;1.00;92.50
3846;DHT22;1938;50.812;7.738;2023-01-24T07:47:57;0.90;99.90
3846;DHT22;1938;50.812;7.738;2023-01-24T07:50:24;0.90;99.90
3846;DHT22;1938;50.812;7.738;2023-01-24T07:52:54;0.90;99.90
3846;DHT22;1938;50.812;7.738;2023-01-24T07:55:20;1.00;99.90
3846;DHT22;1938;50.812;7.738;2023-01-24T07:57:46;0.90;1.00
3846;DHT22;1938;50.812;7.738;2023-01-24T08:00:12;0.90;1.00
3846;DHT22;1938;50.812;7.738;2023-01-24T08:02:42;1.00;56.00
3846;DHT22;1938;50.812;7.738;2023-01-24T08:05:08;1.00;99.90
3846;DHT22;1938;50.812;7.738;2023-01-24T08:07:34;1.10;16.40
3846;DHT22;1938;50.812;7.738;2023-01-24T08:10:00;1.00;99.90
3846;DHT22;1938;50.812;7.738;2023-01-24T08:12:25;0.80;1.00
3846;DHT22;1938;50.812;7.738;2023-01-24T08:14:51;0.80;68.60
3846;DHT22;1938;50.812;7.738;2023-01-24T08:17:17;0.80;1.00
3846;DHT22;1938;50.812;7.738;2023-01-24T08:19:42;0.70;99.90
3846;DHT22;1938;50.812;7.738;2023-01-24T08:22:08;0.60;1.00
3846;DHT22;1938;50.812;7.738;2023-01-24T08:24:33;0.60;99.90
3846;DHT22;1938;50.812;7.738;2023-01-24T08:27:00;0.70;99.90
3846;DHT22;1938;50.812;7.738;2023-01-24T08:29:26;0.70;42.80
3846;DHT22;1938;50.812;7.738;2023-01-24T08:31:51;0.70;3.70
3846;DHT22;1938;50.812;7.738;2023-01-24T08:34:17;0.90;1.00
3846;DHT22;1938;50.812;7.738;2023-01-24T08:36:43;0.80;1.00
3846;DHT22;1938;50.812;7.738;2023-01-24T08:39:08;0.80;1.00
3846;DHT22;1938;50.812;7.738;2023-01-24T08:41:34;0.70;99.90
3846;DHT22;1938;50.812;7.738;2023-01-24T08:44:00;0.70;1.00
3846;DHT22;1938;50.812;7.738;2023-01-24T08:46:29;0.80;1.00
3846;DHT22;1938;50.812;7.738;2023-01-24T08:48:54;0.80;99.90
3846;DHT22;1938;50.812;7.738;2023-01-24T08:51:20;0.80;99.90
3846;DHT22;1938;50.812;7.738;2023-01-24T08:53:46;0.80;94.00
3846;DHT22;1938;50.812;7.738;2023-01-24T08:56:12;0.80;1.00
3846;DHT22;1938;50.812;7.738;2023-01-24T08:58:38;1.10;47.30
3846;DHT22;1938;50.812;7.738;2023-01-24T09:01:07;1.10;1.00
3846;DHT22;1938;50.812;7.738;2023-01-24T09:03:33;0.90;99.90
3846;DHT22;1938;50.812;7.738;2023-01-24T09:05:59;0.80;21.20
3846;DHT22;1938;50.812;7.738;2023-01-24T09:08:25;0.70;1.00
3846;DHT22;1938;50.812;7.738;2023-01-24T09:10:52;0.80;1.00
3846;DHT22;1938;50.812;7.738;2023-01-24T09:13:17;0.80;1.00
3846;DHT22;1938;50.812;7.738;2023-01-24T09:15:43;0.90;78.30
3846;DHT22;1938;50.812;7.738;2023-01-24T09:18:09;0.90;1.00
3846;DHT22;1938;50.812;7.738;2023-01-24T09:20:34;0.90;99.90
3846;DHT22;1938;50.812;7.738;2023-01-24T09:23:06;1.20;99.90
3846;DHT22;1938;50.812;7.738;2023-01-24T09:25:32;1.10;1.00
3846;DHT22;1938;50.812;7.738;2023-01-24T09:27:57;1.00;99.90
3846;DHT22;1938;50.812;7.738;2023-01-24T09:30:23;1.00;99.90
3846;DHT22;1938;50.812;7.738;2023-01-24T09:32:49;0.90;99.90
3846;DHT22;1938;50.812;7.738;2023-01-24T09:35:14;0.90;94.70
3846;DHT22;1938;50.812;7.738;2023-01-24T09:37:40;0.90;1.00
3846;DHT22;1938;50.812;7.738;2023-01-24T09:43:01;0.90;99.90
3846;DHT22;1938;50.812;7.738;2023-01-24T09:46:28;0.90;63.40
3846;DHT22;1938;50.812;7.738;2023-01-24T09:48:33;1.10;1.00
3846;DHT22;1938;50.812;7.738;2023-01-24T09:51:01;1.00;99.90
3846;DHT22;1938;50.812;7.738;2023-01-24T09:53:44;1.00;1.00
3846;DHT22;1938;50.812;7.738;2023-01-24T09:56:27;0.90;1.00
3846;DHT22;1938;50.812;7.738;2023-01-24T09:59:06;1.00;34.00
3846;DHT22;1938;50.812;7.738;2023-01-24T10:01:36;0.90;99.90
3846;DHT22;1938;50.812;7.738;2023-01-24T10:04:04;0.90;99.90
3846;DHT22;1938;50.812;7.738;2023-01-24T10:06:32;0.90;99.90
3846;DHT22;1938;50.812;7.738;2023-01-24T10:09:13;0.80;43.50
3846;DHT22;1938;50.812;7.738;2023-01-24T10:14:39;0.80;1.00
3846;DHT22;1938;50.812;7.738;2023-01-24T10:17:12;0.90;99.90
3846;DHT22;1938;50.812;7.738;2023-01-24T10:23:04;0.90;17.50
3846;DHT22;1938;50.812;7.738;2023-01-24T10:28:34;1.00;21.70
3846;DHT22;1938;50.812;7.738;2023-01-24T10:31:34;1.10;1.00
3846;DHT22;1938;50.812;7.738;2023-01-24T10:37:15;1.30;99.90
3846;DHT22;1938;50.812;7.738;2023-01-24T10:39:44;1.40;42.80
3846;DHT22;1938;50.812;7.738;2023-01-24T10:42:30;1.40;17.00
3846;DHT22;1938;50.812;7.738;2023-01-24T10:47:53;1.40;1.00
3846;DHT22;1938;50.812;7.738;2023-01-24T10:50:23;1.50;69.80
3846;DHT22;1938;50.812;7.738;2023-01-24T10:52:51;1.60;26.70
3846;DHT22;1938;50.812;7.738;2023-01-24T10:55:34;1.60;1.00
3846;DHT22;1938;50.812;7.738;2023-01-24T10:58:23;1.60;1.00
3846;DHT22;1938;50.812;7.738;2023-01-24T11:00:55;1.60;1.00
3846;DHT22;1938;50.812;7.738;2023-01-24T11:03:30;1.60;99.90
3846;DHT22;1938;50.812;7.738;2023-01-24T11:05:57;1.70;1.00
3846;DHT22;1938;50.812;7.738;2023-01-24T11:08:25;1.80;1.00
3846;DHT22;1938;50.812;7.738;2023-01-24T11:10:56;1.80;99.90
3846;DHT22;1938;50.812;7.738;2023-01-24T11:13:37;1.80;99.90
3846;DHT22;1938;50.812;7.738;2023-01-24T11:16:26;1.70;99.90
3846;DHT22;1938;50.812;7.738;2023-01-24T11:19:01;1.70;99.90
3846;DHT22;1938;50.812;7.738;2023-01-24T11:21:28;1.60;99.90
3846;DHT22;1938;50.812;7.738;2023-01-24T11:26:35;1.70;99.90
3846;DHT22;1938;50.812;7.738;2023-01-24T11:29:14;1.60;43.50
3846;DHT22;1938;50.812;7.738;2023-01-24T11:31:50;1.60;99.90
3846;DHT22;1938;50.812;7.738;2023-01-24T11:34:36;1.70;77.80
3846;DHT22;1938;50.812;7.738;2023-01-24T11:48:51;1.20;99.90
3846;DHT22;1938;50.812;7.738;2023-01-24T11:59:13;1.30;99.90
3846;DHT22;1938;50.812;7.738;2023-01-24T12:04:46;1.70;99.90
3846;DHT22;1938;50.812;7.738;2023-01-24T12:12:44;1.40;99.90
3846;DHT22;1938;50.812;7.738;2023-01-24T12:15:46;1.30;1.00
3846;DHT22;1938;50.812;7.738;2023-01-24T12:20:58;1.10;1.00
3846;DHT22;1938;50.812;7.738;2023-01-24T12:26:35;1.40;1.00
3846;DHT22;1938;50.812;7.738;2023-01-24T12:31:58;1.50;1.00
3846;DHT22;1938;50.812;7.738;2023-01-24T12:37:03;1.30;1.00
3846;DHT22;1938;50.812;7.738;2023-01-24T12:39:40;1.20;1.00
3846;DHT22;1938;50.812;7.738;2023-01-24T12:42:16;1.30;1.00
3846;DHT22;1938;50.812;7.738;2023-01-24T12:45:10;1.30;1.00
3846;DHT22;1938;50.812;7.738;2023-01-24T12:47:47;1.30;99.90
3846;DHT22;1938;50.812;7.738;2023-01-24T12:52:50;1.30;99.90
3846;DHT22;1938;50.812;7.738;2023-01-24T12:55:25;1.20;1.00
3846;DHT22;1938;50.812;7.738;2023-01-24T13:00:22;1.00;1.00
3846;DHT22;1938;50.812;7.738;2023-01-24T13:05:55;1.00;99.90
3846;DHT22;1938;50.812;7.738;2023-01-24T13:08:38;1.00;1.00
3846;DHT22;1938;50.812;7.738;2023-01-24T13:11:23;1.00;1.00
3846;DHT22;1938;50.812;7.738;2023-01-24T13:14:11;1.00;1.00
3846;DHT22;1938;50.812;7.738;2023-01-24T13:16:55;1.10;1.00
3846;DHT22;1938;50.812;7.738;2023-01-24T13:22:23;1.20;99.90
3846;DHT22;1938;50.812;7.738;2023-01-24T13:30:53;1.20;1.00
3846;DHT22;1938;50.812;7.738;2023-01-24T13:33:29;1.10;1.00
3846;DHT22;1938;50.812;7.738;2023-01-24T13:35:56;1.00;1.00
3846;DHT22;1938;50.812;7.738;2023-01-24T13:38:27;1.00;1.00
3846;DHT22;1938;50.812;7.738;2023-01-24T13:43:55;1.30;16.90
3846;DHT22;1938;50.812;7.738;2023-01-24T13:51:49;1.00;1.00
3846;DHT22;1938;50.812;7.738;2023-01-24T13:59:40;1.00;43.30
3846;DHT22;1938;50.812;7.738;2023-01-24T14:02:31;1.00;7.10
3846;DHT22;1938;50.812;7.738;2023-01-24T14:04:57;1.10;99.90
3846;DHT22;1938;50.812;7.738;2023-01-24T14:07:40;1.30;1.00
3846;DHT22;1938;50.812;7.738;2023-01-24T14:10:07;1.30;1.00
3846;DHT22;1938;50.812;7.738;2023-01-24T14:12:38;1.20;1.00
3846;DHT22;1938;50.812;7.738;2023-01-24T14:15:25;1.10;99.90
3846;DHT22;1938;50.812;7.738;2023-01-24T14:17:51;1.10;1.00
3846;DHT22;1938;50.812;7.738;2023-01-24T14:22:52;1.00;99.90
3846;DHT22;1938;50.812;7.738;2023-01-24T14:28:00;1.00;1.00
3846;DHT22;1938;50.812;7.738;2023-01-24T14:30:34;1.10;99.90
3846;DHT22;1938;50.812;7.738;2023-01-24T14:33:33;1.20;28.90
3846;DHT22;1938;50.812;7.738;2023-01-24T14:36:01;1.10;1.00
3846;DHT22;1938;50.812;7.738;2023-01-24T14:38:30;1.00;99.90
3846;DHT22;1938;50.812;7.738;2023-01-24T14:40:57;0.90;99.90
3846;DHT22;1938;50.812;7.738;2023-01-24T14:43:36;1.00;99.90
3846;DHT22;1938;50.812;7.738;2023-01-24T14:46:28;0.90;21.20
3846;DHT22;1938;50.812;7.738;2023-01-24T14:48:54;0.90;58.50
3846;DHT22;1938;50.812;7.738;2023-01-24T14:51:23;0.90;99.90
3846;DHT22;1938;50.812;7.738;2023-01-24T14:53:53;0.80;99.90
3846;DHT22;1938;50.812;7.738;2023-01-24T14:56:20;0.80;99.90
3846;DHT22;1938;50.812;7.738;2023-01-24T14:58:47;0.80;99.90
3846;DHT22;1938;50.812;7.738;2023-01-24T15:01:29;0.80;1.00
3846;DHT22;1938;50.812;7.738;2023-01-24T15:03:57;0.70;99.90
3846;DHT22;1938;50.812;7.738;2023-01-24T15:06:24;0.80;2.50
3846;DHT22;1938;50.812;7.738;2023-01-24T15:08:57;0.80;99.90
3846;DHT22;1938;50.812;7.738;2023-01-24T15:11:34;0.80;99.90
3846;DHT22;1938;50.812;7.738;2023-01-24T15:14:03;0.80;99.90
3846;DHT22;1938;50.812;7.738;2023-01-24T15:16:34;0.70;1.00
3846;DHT22;1938;50.812;7.738;2023-01-24T15:19:05;0.70;99.90
3846;DHT22;1938;50.812;7.738;2023-01-24T15:21:32;0.80;53.10
3846;DHT22;1938;50.812;7.738;2023-01-24T15:23:59;0.80;1.00
3846;DHT22;1938;50.812;7.738;2023-01-24T15:26:35;0.90;21.80
3846;DHT22;1938;50.812;7.738;2023-01-24T15:40:24;0.60;1.00
3846;DHT22;1938;50.812;7.738;2023-01-24T15:42:50;0.70;99.90
3846;DHT22;1938;50.812;7.738;2023-01-24T15:45:39;0.60;99.90
3846;DHT22;1938;50.812;7.738;2023-01-24T15:48:23;0.60;1.00
3846;DHT22;1938;50.812;7.738;2023-01-24T15:50:54;0.60;1.00
3846;DHT22;1938;50.812;7.738;2023-01-24T15:53:34;0.80;1.00
3846;DHT22;1938;50.812;7.738;2023-01-24T15:56:03;0.60;1.00
3846;DHT22;1938;50.812;7.738;2023-01-24T15:58:31;0.60;1.00
3846;DHT22;1938;50.812;7.738;2023-01-24T16:01:00;0.60;1.00
3846;DHT22;1938;50.812;7.738;2023-01-24T16:03:25;0.60;1.00
3846;DHT22;1938;50.812;7.738;2023-01-24T16:05:51;0.50;99.90
3846;DHT22;1938;50.812;7.738;2023-01-24T16:08:17;0.50;99.90
3846;DHT22;1938;50.812;7.738;2023-01-24T16:10:44;0.40;1.00
3846;DHT22;1938;50.812;7.738;2023-01-24T16:13:34;0.50;27.20
3846;DHT22;1938;50.812;7.738;2023-01-24T16:16:04;0.60;1.00
3846;DHT22;1938;50.812;7.738;2023-01-24T16:18:31;0.80;46.90
3846;DHT22;1938;50.812;7.738;2023-01-24T16:20:57;0.70;25.40
3846;DHT22;1938;50.812;7.738;2023-01-24T16:23:23;0.60;1.00
3846;DHT22;1938;50.812;7.738;2023-01-24T16:25:52;0.60;5.10
3846;DHT22;1938;50.812;7.738;2023-01-24T16:28:24;0.60;99.90
3846;DHT22;1938;50.812;7.738;2023-01-24T16:30:52;0.60;99.90
3846;DHT22;1938;50.812;7.738;2023-01-24T16:33:19;0.60;1.00
3846;DHT22;1938;50.812;7.738;2023-01-24T16:35:45;0.70;99.90
3846;DHT22;1938;50.812;7.738;2023-01-24T16:38:13;0.70;99.90
3846;DHT22;1938;50.812;7.738;2023-01-24T16:40:40;0.80;99.90
3846;DHT22;1938;50.812;7.738;2023-01-24T16:43:07;0.80;99.90
3846;DHT22;1938;50.812;7.738;2023-01-24T16:45:34;0.90;1.00
3846;DHT22;1938;50.812;7.738;2023-01-24T16:47:59;1.00;99.90
3846;DHT22;1938;50.812;7.738;2023-01-24T16:50:26;1.00;99.90
3846;DHT22;1938;50.812;7.738;2023-01-24T16:52:52;1.00;1.00
3846;DHT22;1938;50.812;7.738;2023-01-24T16:55:18;1.00;53.30
3846;DHT22;1938;50.812;7.738;2023-01-24T16:57:44;1.10;1.00
3846;DHT22;1938;50.812;7.738;2023-01-24T17:00:11;1.10;1.00
3846;DHT22;1938;50.812;7.738;2023-01-24T17:02:41;1.00;37.20
3846;DHT22;1938;50.812;7.738;2023-01-24T17:05:07;1.00;99.90
3846;DHT22;1938;50.812;7.738;2023-01-24T17:07:33;1.00;99.90
3846;DHT22;1938;50.812;7.738;2023-01-24T17:09:59;0.90;99.90
3846;DHT22;1938;50.812;7.738;2023-01-24T17:12:28;0.70;99.90
3846;DHT22;1938;50.812;7.738;2023-01-24T17:14:54;0.60;1.00
3846;DHT22;1938;50.812;7.738;2023-01-24T17:17:19;0.60;99.90
3846;DHT22;1938;50.812;7.738;2023-01-24T17:19:45;0.60;1.00
3846;DHT22;1938;50.812;7.738;2023-01-24T17:22:11;0.60;24.40
3846;DHT22;1938;50.812;7.738;2023-01-24T17:24:36;0.60;1.00
3846;DHT22;1938;50.812;7.738;2023-01-24T17:27:02;0.60;1.00
3846;DHT22;1938;50.812;7.738;2023-01-24T17:29:28;0.70;1.00
3846;DHT22;1938;50.812;7.738;2023-01-24T17:31:55;0.80;39.40
3846;DHT22;1938;50.812;7.738;2023-01-24T17:34:21;0.70;1.00
3846;DHT22;1938;50.812;7.738;2023-01-24T17:36:47;0.70;1.00
3846;DHT22;1938;50.812;7.738;2023-01-24T17:39:12;0.80;1.00
3846;DHT22;1938;50.812;7.738;2023-01-24T17:41:39;0.70;1.00
3846;DHT22;1938;50.812;7.738;2023-01-24T17:44:06;0.80;1.00
3846;DHT22;1938;50.812;7.738;2023-01-24T17:46:32;0.80;1.00
3846;DHT22;1938;50.812;7.738;2023-01-24T17:48:57;0.70;1.00
3846;DHT22;1938;50.812;7.738;2023-01-24T17:51:23;0.70;21.60
3846;DHT22;1938;50.812;7.738;2023-01-24T17:53:49;0.50;99.90
3846;DHT22;1938;50.812;7.738;2023-01-24T17:56:16;0.30;1.00
3846;DHT22;1938;50.812;7.738;2023-01-24T17:58:42;0.20;1.00
3846;DHT22;1938;50.812;7.738;2023-01-24T18:01:09;0.20;1.00
3846;DHT22;1938;50.812;7.738;2023-01-24T18:03:36;0.20;26.40
3846;DHT22;1938;50.812;7.738;2023-01-24T18:06:04;0.20;19.70
3846;DHT22;1938;50.812;7.738;2023-01-24T18:08:29;0.20;52.90
3846;DHT22;1938;50.812;7.738;2023-01-24T18:10:55;0.20;55.40
3846;DHT22;1938;50.812;7.738;2023-01-24T18:13:21;0.20;39.90
3846;DHT22;1938;50.812;7.738;2023-01-24T18:15:46;0.10;80.40
3846;DHT22;1938;50.812;7.738;2023-01-24T18:18:13;0.40;99.90
3846;DHT22;1938;50.812;7.738;2023-01-24T18:20:40;0.30;81.00
3846;DHT22;1938;50.812;7.738;2023-01-24T18:23:07;0.20;80.30
3846;DHT22;1938;50.812;7.738;2023-01-24T18:25:32;0.20;84.40
3846;DHT22;1938;50.812;7.738;2023-01-24T18:27:58;0.20;99.90
3846;DHT22;1938;50.812;7.738;2023-01-24T18:30:24;0.20;99.90
3846;DHT22;1938;50.812;7.738;2023-01-24T18:32:49;0.20;99.90
3846;DHT22;1938;50.812;7.738;2023-01-24T18:35:15;0.20;99.90
3846;DHT22;1938;50.812;7.738;2023-01-24T18:37:41;0.20;99.90